sensor_id;sensor_type;location;lat;lon;timestamp;P1;durP1;ratioP1;P2;durP2;ratioP2
7181;SDS011;3632;42.724;23.298;2023-12-20T00:00:29;223.70;;;130.97;;
7181;SDS011;3632;42.724;23.298;2023-12-20T00:02:56;212.03;;;124.77;;
7181;SDS011;3632;42.724;23.298;2023-12-20T00:05:23;168.70;;;101.20;;
7181;SDS011;3632;42.724;23.298;2023-12-20T00:07:50;170.60;;;99.67;;
7181;SDS011;3632;42.724;23.298;2023-12-20T00:10:16;157.63;;;90.03;;
7181;SDS011;3632;42.724;23.298;2023-12-20T00:12:44;178.33;;;99.70;;
7181;SDS011;3632;42.724;23.298;2023-12-20T00:15:12;148.13;;;89.93;;
7181;SDS011;3632;42.724;23.298;2023-12-20T00:17:39;170.97;;;100.13;;
7181;SDS011;3632;42.724;23.298;2023-12-20T00:20:06;156.40;;;91.20;;
7181;SDS011;3632;42.724;23.298;2023-12-20T00:22:34;130.43;;;77.83;;
7181;SDS011;3632;42.724;23.298;2023-12-20T00:25:00;125.10;;;71.03;;
7181;SDS011;3632;42.724;23.298;2023-12-20T00:27:27;107.10;;;63.73;;
7181;SDS011;3632;42.724;23.298;2023-12-20T00:29:55;111.57;;;62.83;;
7181;SDS011;3632;42.724;23.298;2023-12-20T00:32:23;92.60;;;54.23;;
7181;SDS011;3632;42.724;23.298;2023-12-20T00:34:49;89.73;;;52.83;;
7181;SDS011;3632;42.724;23.298;2023-12-20T00:37:16;90.87;;;52.40;;
7181;SDS011;3632;42.724;23.298;2023-12-20T00:39:43;89.77;;;52.33;;
7181;SDS011;3632;42.724;23.298;2023-12-20T00:42:09;86.33;;;52.33;;
7181;SDS011;3632;42.724;23.298;2023-12-20T00:44:36;96.43;;;57.23;;
7181;SDS011;3632;42.724;23.298;2023-12-20T00:47:03;96.63;;;57.30;;
7181;SDS011;3632;42.724;23.298;2023-12-20T00:49:31;104.10;;;60.20;;
7181;SDS011;3632;42.724;23.298;2023-12-20T00:51:58;96.93;;;57.47;;
7181;SDS011;3632;42.724;23.298;2023-12-20T00:54:24;112.77;;;65.00;;
7181;SDS011;3632;42.724;23.298;2023-12-20T00:56:51;107.27;;;64.13;;
7181;SDS011;3632;42.724;23.298;2023-12-20T00:59:18;111.10;;;63.67;;
7181;SDS011;3632;42.724;23.298;2023-12-20T01:01:45;106.43;;;63.40;;
7181;SDS011;3632;42.724;23.298;2023-12-20T01:04:12;117.93;;;70.63;;
7181;SDS011;3632;42.724;23.298;2023-12-20T01:06:40;113.40;;;68.80;;
7181;SDS011;3632;42.724;23.298;2023-12-20T01:09:07;114.23;;;70.17;;
7181;SDS011;3632;42.724;23.298;2023-12-20T01:11:33;115.77;;;67.47;;
7181;SDS011;3632;42.724;23.298;2023-12-20T01:14:00;107.53;;;63.77;;
7181;SDS011;3632;42.724;23.298;2023-12-20T01:16:27;102.33;;;60.57;;
7181;SDS011;3632;42.724;23.298;2023-12-20T01:18:53;107.67;;;63.83;;
7181;SDS011;3632;42.724;23.298;2023-12-20T01:21:20;105.47;;;63.40;;
7181;SDS011;3632;42.724;23.298;2023-12-20T01:23:48;114.50;;;72.30;;
7181;SDS011;3632;42.724;23.298;2023-12-20T01:26:15;125.20;;;77.70;;
7181;SDS011;3632;42.724;23.298;2023-12-20T01:28:42;125.37;;;77.97;;
7181;SDS011;3632;42.724;23.298;2023-12-20T01:31:08;129.13;;;77.03;;
7181;SDS011;3632;42.724;23.298;2023-12-20T01:33:35;112.57;;;71.07;;
7181;SDS011;3632;42.724;23.298;2023-12-20T01:36:02;123.47;;;75.13;;
7181;SDS011;3632;42.724;23.298;2023-12-20T01:38:29;124.60;;;71.00;;
7181;SDS011;3632;42.724;23.298;2023-12-20T01:40:58;116.00;;;69.00;;
7181;SDS011;3632;42.724;23.298;2023-12-20T01:43:25;121.97;;;71.03;;
7181;SDS011;3632;42.724;23.298;2023-12-20T01:45:52;126.80;;;75.60;;
7181;SDS011;3632;42.724;23.298;2023-12-20T01:48:19;128.60;;;78.90;;
7181;SDS011;3632;42.724;23.298;2023-12-20T01:50:46;126.20;;;75.77;;
7181;SDS011;3632;42.724;23.298;2023-12-20T01:53:14;126.90;;;75.07;;
7181;SDS011;3632;42.724;23.298;2023-12-20T01:55:42;124.93;;;74.03;;
7181;SDS011;3632;42.724;23.298;2023-12-20T01:58:12;122.70;;;74.30;;
7181;SDS011;3632;42.724;23.298;2023-12-20T02:00:39;124.53;;;74.97;;
7181;SDS011;3632;42.724;23.298;2023-12-20T02:03:06;119.20;;;75.60;;
7181;SDS011;3632;42.724;23.298;2023-12-20T02:05:34;131.97;;;73.90;;
7181;SDS011;3632;42.724;23.298;2023-12-20T02:08:02;119.90;;;71.23;;
7181;SDS011;3632;42.724;23.298;2023-12-20T02:10:29;113.57;;;67.47;;
7181;SDS011;3632;42.724;23.298;2023-12-20T02:12:56;123.73;;;69.27;;
7181;SDS011;3632;42.724;23.298;2023-12-20T02:15:24;122.30;;;68.67;;
7181;SDS011;3632;42.724;23.298;2023-12-20T02:17:51;115.60;;;65.40;;
7181;SDS011;3632;42.724;23.298;2023-12-20T02:20:18;111.30;;;63.40;;
7181;SDS011;3632;42.724;23.298;2023-12-20T02:22:46;116.83;;;66.93;;
7181;SDS011;3632;42.724;23.298;2023-12-20T02:25:12;104.77;;;60.27;;
7181;SDS011;3632;42.724;23.298;2023-12-20T02:27:39;106.53;;;58.80;;
7181;SDS011;3632;42.724;23.298;2023-12-20T02:30:06;106.40;;;60.33;;
7181;SDS011;3632;42.724;23.298;2023-12-20T02:32:35;123.40;;;68.07;;
7181;SDS011;3632;42.724;23.298;2023-12-20T02:35:01;105.93;;;64.00;;
7181;SDS011;3632;42.724;23.298;2023-12-20T02:37:28;129.53;;;68.37;;
7181;SDS011;3632;42.724;23.298;2023-12-20T02:39:56;146.13;;;74.33;;
7181;SDS011;3632;42.724;23.298;2023-12-20T02:42:23;166.40;;;73.87;;
7181;SDS011;3632;42.724;23.298;2023-12-20T02:44:50;172.97;;;73.40;;
7181;SDS011;3632;42.724;23.298;2023-12-20T02:47:16;187.23;;;74.10;;
7181;SDS011;3632;42.724;23.298;2023-12-20T02:49:43;198.40;;;79.53;;
7181;SDS011;3632;42.724;23.298;2023-12-20T02:52:10;198.93;;;73.80;;
7181;SDS011;3632;42.724;23.298;2023-12-20T02:54:36;189.37;;;74.77;;
7181;SDS011;3632;42.724;23.298;2023-12-20T02:57:04;194.40;;;74.03;;
7181;SDS011;3632;42.724;23.298;2023-12-20T02:59:31;205.93;;;73.70;;
7181;SDS011;3632;42.724;23.298;2023-12-20T03:01:58;203.83;;;75.50;;
7181;SDS011;3632;42.724;23.298;2023-12-20T03:04:25;193.27;;;70.73;;
7181;SDS011;3632;42.724;23.298;2023-12-20T03:06:51;204.47;;;73.63;;
7181;SDS011;3632;42.724;23.298;2023-12-20T03:09:18;209.33;;;72.97;;
7181;SDS011;3632;42.724;23.298;2023-12-20T03:11:45;172.03;;;68.70;;
7181;SDS011;3632;42.724;23.298;2023-12-20T03:14:13;192.87;;;73.97;;
7181;SDS011;3632;42.724;23.298;2023-12-20T03:16:39;174.73;;;67.23;;
7181;SDS011;3632;42.724;23.298;2023-12-20T03:19:06;212.60;;;67.27;;
7181;SDS011;3632;42.724;23.298;2023-12-20T03:21:33;162.00;;;63.93;;
7181;SDS011;3632;42.724;23.298;2023-12-20T03:23:59;202.13;;;64.90;;
7181;SDS011;3632;42.724;23.298;2023-12-20T03:26:26;195.17;;;62.53;;
7181;SDS011;3632;42.724;23.298;2023-12-20T03:28:53;164.53;;;63.93;;
7181;SDS011;3632;42.724;23.298;2023-12-20T03:31:21;150.83;;;57.90;;
7181;SDS011;3632;42.724;23.298;2023-12-20T03:33:47;144.93;;;59.87;;
7181;SDS011;3632;42.724;23.298;2023-12-20T03:36:16;149.87;;;59.50;;
7181;SDS011;3632;42.724;23.298;2023-12-20T03:38:43;145.67;;;59.17;;
7181;SDS011;3632;42.724;23.298;2023-12-20T03:41:09;165.50;;;61.87;;
7181;SDS011;3632;42.724;23.298;2023-12-20T03:43:36;158.73;;;59.20;;
7181;SDS011;3632;42.724;23.298;2023-12-20T03:46:03;146.83;;;60.33;;
7181;SDS011;3632;42.724;23.298;2023-12-20T03:48:31;164.43;;;59.93;;
7181;SDS011;3632;42.724;23.298;2023-12-20T03:50:58;134.57;;;56.70;;
7181;SDS011;3632;42.724;23.298;2023-12-20T03:53:24;162.23;;;57.67;;
7181;SDS011;3632;42.724;23.298;2023-12-20T03:55:51;140.77;;;59.43;;
7181;SDS011;3632;42.724;23.298;2023-12-20T03:58:18;131.13;;;57.00;;
7181;SDS011;3632;42.724;23.298;2023-12-20T04:00:44;146.87;;;58.23;;
7181;SDS011;3632;42.724;23.298;2023-12-20T04:03:11;147.67;;;58.03;;
7181;SDS011;3632;42.724;23.298;2023-12-20T04:05:40;139.23;;;56.53;;
7181;SDS011;3632;42.724;23.298;2023-12-20T04:08:07;127.93;;;55.10;;
7181;SDS011;3632;42.724;23.298;2023-12-20T04:10:34;126.97;;;54.50;;
7181;SDS011;3632;42.724;23.298;2023-12-20T04:13:02;106.33;;;50.03;;
7181;SDS011;3632;42.724;23.298;2023-12-20T04:15:29;134.30;;;56.30;;
7181;SDS011;3632;42.724;23.298;2023-12-20T04:17:56;121.93;;;49.57;;
7181;SDS011;3632;42.724;23.298;2023-12-20T04:20:22;120.53;;;50.40;;
7181;SDS011;3632;42.724;23.298;2023-12-20T04:22:51;145.57;;;51.73;;
7181;SDS011;3632;42.724;23.298;2023-12-20T04:25:17;109.77;;;47.13;;
7181;SDS011;3632;42.724;23.298;2023-12-20T04:27:44;91.50;;;45.20;;
7181;SDS011;3632;42.724;23.298;2023-12-20T04:30:11;157.27;;;47.03;;
7181;SDS011;3632;42.724;23.298;2023-12-20T04:32:38;119.47;;;46.07;;
7181;SDS011;3632;42.724;23.298;2023-12-20T04:35:04;74.73;;;41.80;;
7181;SDS011;3632;42.724;23.298;2023-12-20T04:37:32;102.00;;;40.97;;
7181;SDS011;3632;42.724;23.298;2023-12-20T04:40:00;207.73;;;44.90;;
7181;SDS011;3632;42.724;23.298;2023-12-20T04:42:27;136.83;;;43.90;;
7181;SDS011;3632;42.724;23.298;2023-12-20T04:44:53;126.57;;;41.17;;
7181;SDS011;3632;42.724;23.298;2023-12-20T04:47:20;116.30;;;43.67;;
7181;SDS011;3632;42.724;23.298;2023-12-20T04:49:47;95.90;;;40.40;;
7181;SDS011;3632;42.724;23.298;2023-12-20T04:52:14;115.83;;;39.57;;
7181;SDS011;3632;42.724;23.298;2023-12-20T04:54:41;95.00;;;40.33;;
7181;SDS011;3632;42.724;23.298;2023-12-20T04:57:09;100.80;;;40.40;;
7181;SDS011;3632;42.724;23.298;2023-12-20T04:59:36;92.77;;;41.37;;
7181;SDS011;3632;42.724;23.298;2023-12-20T05:02:02;117.20;;;45.40;;
7181;SDS011;3632;42.724;23.298;2023-12-20T05:04:29;108.70;;;42.93;;
7181;SDS011;3632;42.724;23.298;2023-12-20T05:06:56;128.87;;;51.70;;
7181;SDS011;3632;42.724;23.298;2023-12-20T05:09:23;109.70;;;52.27;;
7181;SDS011;3632;42.724;23.298;2023-12-20T05:11:49;121.50;;;52.83;;
7181;SDS011;3632;42.724;23.298;2023-12-20T05:14:17;138.40;;;52.00;;
7181;SDS011;3632;42.724;23.298;2023-12-20T05:16:44;104.57;;;48.97;;
7181;SDS011;3632;42.724;23.298;2023-12-20T05:19:11;85.50;;;42.50;;
7181;SDS011;3632;42.724;23.298;2023-12-20T05:21:37;76.80;;;38.83;;
7181;SDS011;3632;42.724;23.298;2023-12-20T05:24:04;70.10;;;35.90;;
7181;SDS011;3632;42.724;23.298;2023-12-20T05:26:31;68.33;;;32.93;;
7181;SDS011;3632;42.724;23.298;2023-12-20T05:28:58;56.27;;;29.33;;
7181;SDS011;3632;42.724;23.298;2023-12-20T05:31:26;52.40;;;29.80;;
7181;SDS011;3632;42.724;23.298;2023-12-20T05:33:52;59.30;;;29.37;;
7181;SDS011;3632;42.724;23.298;2023-12-20T05:36:19;114.73;;;31.73;;
7181;SDS011;3632;42.724;23.298;2023-12-20T05:38:46;73.13;;;33.23;;
7181;SDS011;3632;42.724;23.298;2023-12-20T05:41:13;71.23;;;31.63;;
7181;SDS011;3632;42.724;23.298;2023-12-20T05:43:40;73.50;;;31.47;;
7181;SDS011;3632;42.724;23.298;2023-12-20T05:46:06;80.90;;;34.33;;
7181;SDS011;3632;42.724;23.298;2023-12-20T05:48:35;142.17;;;38.80;;
7181;SDS011;3632;42.724;23.298;2023-12-20T05:51:01;129.03;;;38.30;;
7181;SDS011;3632;42.724;23.298;2023-12-20T05:53:28;89.23;;;36.20;;
7181;SDS011;3632;42.724;23.298;2023-12-20T05:55:55;69.70;;;35.07;;
7181;SDS011;3632;42.724;23.298;2023-12-20T05:58:22;73.93;;;33.27;;
7181;SDS011;3632;42.724;23.298;2023-12-20T06:00:48;63.57;;;33.63;;
7181;SDS011;3632;42.724;23.298;2023-12-20T06:03:15;66.47;;;31.97;;
7181;SDS011;3632;42.724;23.298;2023-12-20T06:05:43;60.03;;;30.23;;
7181;SDS011;3632;42.724;23.298;2023-12-20T06:08:10;59.00;;;29.83;;
7181;SDS011;3632;42.724;23.298;2023-12-20T06:10:36;53.57;;;29.93;;
7181;SDS011;3632;42.724;23.298;2023-12-20T06:13:03;54.43;;;28.90;;
7181;SDS011;3632;42.724;23.298;2023-12-20T06:15:31;53.13;;;28.47;;
7181;SDS011;3632;42.724;23.298;2023-12-20T06:17:58;51.40;;;28.40;;
7181;SDS011;3632;42.724;23.298;2023-12-20T06:20:25;52.23;;;28.63;;
7181;SDS011;3632;42.724;23.298;2023-12-20T06:22:53;49.97;;;27.77;;
7181;SDS011;3632;42.724;23.298;2023-12-20T06:25:19;52.23;;;28.60;;
7181;SDS011;3632;42.724;23.298;2023-12-20T06:27:46;68.23;;;34.57;;
7181;SDS011;3632;42.724;23.298;2023-12-20T06:30:13;63.77;;;33.00;;
7181;SDS011;3632;42.724;23.298;2023-12-20T06:32:39;63.07;;;31.73;;
7181;SDS011;3632;42.724;23.298;2023-12-20T06:35:08;69.70;;;34.07;;
7181;SDS011;3632;42.724;23.298;2023-12-20T06:37:35;73.00;;;36.47;;
7181;SDS011;3632;42.724;23.298;2023-12-20T06:40:04;71.93;;;36.63;;
7181;SDS011;3632;42.724;23.298;2023-12-20T06:42:32;77.57;;;38.90;;
7181;SDS011;3632;42.724;23.298;2023-12-20T06:44:58;79.70;;;44.17;;
7181;SDS011;3632;42.724;23.298;2023-12-20T06:47:25;88.80;;;47.50;;
7181;SDS011;3632;42.724;23.298;2023-12-20T06:49:52;93.57;;;45.00;;
7181;SDS011;3632;42.724;23.298;2023-12-20T06:52:19;85.57;;;43.27;;
7181;SDS011;3632;42.724;23.298;2023-12-20T06:54:45;81.67;;;43.07;;
7181;SDS011;3632;42.724;23.298;2023-12-20T06:57:14;91.10;;;43.87;;
7181;SDS011;3632;42.724;23.298;2023-12-20T06:59:40;91.40;;;41.97;;
7181;SDS011;3632;42.724;23.298;2023-12-20T07:02:08;112.03;;;44.53;;
7181;SDS011;3632;42.724;23.298;2023-12-20T07:04:38;94.97;;;44.07;;
7181;SDS011;3632;42.724;23.298;2023-12-20T07:07:05;104.80;;;48.03;;
7181;SDS011;3632;42.724;23.298;2023-12-20T07:09:32;103.53;;;50.33;;
7181;SDS011;3632;42.724;23.298;2023-12-20T07:11:59;108.73;;;52.03;;
7181;SDS011;3632;42.724;23.298;2023-12-20T07:14:27;97.00;;;49.00;;
7181;SDS011;3632;42.724;23.298;2023-12-20T07:16:54;106.67;;;50.20;;
7181;SDS011;3632;42.724;23.298;2023-12-20T07:19:21;103.93;;;50.27;;
7181;SDS011;3632;42.724;23.298;2023-12-20T07:21:48;108.53;;;50.70;;
7181;SDS011;3632;42.724;23.298;2023-12-20T07:24:15;104.60;;;49.60;;
7181;SDS011;3632;42.724;23.298;2023-12-20T07:26:41;98.53;;;49.33;;
7181;SDS011;3632;42.724;23.298;2023-12-20T07:29:08;96.87;;;48.90;;
7181;SDS011;3632;42.724;23.298;2023-12-20T07:31:36;107.83;;;49.33;;
7181;SDS011;3632;42.724;23.298;2023-12-20T07:34:03;112.73;;;51.47;;
7181;SDS011;3632;42.724;23.298;2023-12-20T07:36:30;112.90;;;52.20;;
7181;SDS011;3632;42.724;23.298;2023-12-20T07:38:57;114.63;;;55.00;;
7181;SDS011;3632;42.724;23.298;2023-12-20T07:41:26;108.30;;;51.07;;
7181;SDS011;3632;42.724;23.298;2023-12-20T07:43:59;117.77;;;52.77;;
7181;SDS011;3632;42.724;23.298;2023-12-20T07:46:26;119.40;;;53.07;;
7181;SDS011;3632;42.724;23.298;2023-12-20T07:48:54;115.83;;;52.40;;
7181;SDS011;3632;42.724;23.298;2023-12-20T07:51:20;123.53;;;51.40;;
7181;SDS011;3632;42.724;23.298;2023-12-20T07:53:47;116.37;;;51.70;;
7181;SDS011;3632;42.724;23.298;2023-12-20T07:56:14;116.50;;;51.23;;
7181;SDS011;3632;42.724;23.298;2023-12-20T07:58:41;112.97;;;49.70;;
7181;SDS011;3632;42.724;23.298;2023-12-20T08:01:08;119.13;;;54.27;;
7181;SDS011;3632;42.724;23.298;2023-12-20T08:03:35;132.27;;;58.20;;
7181;SDS011;3632;42.724;23.298;2023-12-20T08:06:04;140.40;;;59.17;;
7181;SDS011;3632;42.724;23.298;2023-12-20T08:08:31;174.83;;;69.17;;
7181;SDS011;3632;42.724;23.298;2023-12-20T08:10:57;140.63;;;61.90;;
7181;SDS011;3632;42.724;23.298;2023-12-20T08:13:25;146.63;;;66.03;;
7181;SDS011;3632;42.724;23.298;2023-12-20T08:15:52;175.47;;;74.57;;
7181;SDS011;3632;42.724;23.298;2023-12-20T08:18:21;157.13;;;71.33;;
7181;SDS011;3632;42.724;23.298;2023-12-20T08:20:48;144.17;;;63.77;;
7181;SDS011;3632;42.724;23.298;2023-12-20T08:23:16;137.70;;;61.00;;
7181;SDS011;3632;42.724;23.298;2023-12-20T08:25:43;139.83;;;62.83;;
7181;SDS011;3632;42.724;23.298;2023-12-20T08:28:11;140.93;;;62.53;;
7181;SDS011;3632;42.724;23.298;2023-12-20T08:30:38;138.00;;;63.27;;
7181;SDS011;3632;42.724;23.298;2023-12-20T08:33:05;134.07;;;59.23;;
7181;SDS011;3632;42.724;23.298;2023-12-20T08:35:36;134.67;;;57.20;;
7181;SDS011;3632;42.724;23.298;2023-12-20T08:38:04;131.47;;;61.50;;
7181;SDS011;3632;42.724;23.298;2023-12-20T08:40:32;127.40;;;57.60;;
7181;SDS011;3632;42.724;23.298;2023-12-20T08:42:59;114.43;;;54.47;;
7181;SDS011;3632;42.724;23.298;2023-12-20T08:45:25;126.03;;;56.60;;
7181;SDS011;3632;42.724;23.298;2023-12-20T08:47:52;126.90;;;59.57;;
7181;SDS011;3632;42.724;23.298;2023-12-20T08:50:19;119.37;;;55.87;;
7181;SDS011;3632;42.724;23.298;2023-12-20T08:52:45;121.97;;;58.53;;
7181;SDS011;3632;42.724;23.298;2023-12-20T08:55:12;126.17;;;57.23;;
7181;SDS011;3632;42.724;23.298;2023-12-20T08:57:43;127.40;;;56.60;;
7181;SDS011;3632;42.724;23.298;2023-12-20T09:00:10;120.97;;;57.80;;
7181;SDS011;3632;42.724;23.298;2023-12-20T09:02:37;139.07;;;62.37;;
7181;SDS011;3632;42.724;23.298;2023-12-20T09:05:04;139.23;;;63.50;;
7181;SDS011;3632;42.724;23.298;2023-12-20T09:07:31;142.10;;;62.60;;
7181;SDS011;3632;42.724;23.298;2023-12-20T09:09:58;130.70;;;59.63;;
7181;SDS011;3632;42.724;23.298;2023-12-20T09:12:25;143.37;;;62.60;;
7181;SDS011;3632;42.724;23.298;2023-12-20T09:14:54;144.83;;;63.50;;
7181;SDS011;3632;42.724;23.298;2023-12-20T09:17:20;140.30;;;62.03;;
7181;SDS011;3632;42.724;23.298;2023-12-20T09:19:48;143.57;;;64.93;;
7181;SDS011;3632;42.724;23.298;2023-12-20T09:22:15;148.27;;;63.13;;
7181;SDS011;3632;42.724;23.298;2023-12-20T09:24:42;142.70;;;66.77;;
7181;SDS011;3632;42.724;23.298;2023-12-20T09:27:10;138.33;;;66.20;;
7181;SDS011;3632;42.724;23.298;2023-12-20T09:29:41;146.13;;;65.87;;
7181;SDS011;3632;42.724;23.298;2023-12-20T09:32:09;145.63;;;68.37;;
7181;SDS011;3632;42.724;23.298;2023-12-20T09:34:36;142.87;;;67.13;;
7181;SDS011;3632;42.724;23.298;2023-12-20T09:37:03;126.13;;;59.10;;
7181;SDS011;3632;42.724;23.298;2023-12-20T09:39:30;137.13;;;64.20;;
7181;SDS011;3632;42.724;23.298;2023-12-20T09:42:00;148.27;;;67.63;;
7181;SDS011;3632;42.724;23.298;2023-12-20T09:44:28;140.03;;;66.30;;
7181;SDS011;3632;42.724;23.298;2023-12-20T09:46:55;131.73;;;61.40;;
7181;SDS011;3632;42.724;23.298;2023-12-20T09:49:24;135.37;;;60.90;;
7181;SDS011;3632;42.724;23.298;2023-12-20T09:51:53;142.60;;;64.50;;
7181;SDS011;3632;42.724;23.298;2023-12-20T09:54:21;139.00;;;63.63;;
7181;SDS011;3632;42.724;23.298;2023-12-20T09:56:48;125.53;;;60.50;;
7181;SDS011;3632;42.724;23.298;2023-12-20T09:59:15;120.73;;;56.80;;
7181;SDS011;3632;42.724;23.298;2023-12-20T10:01:43;115.87;;;56.63;;
7181;SDS011;3632;42.724;23.298;2023-12-20T10:04:10;120.23;;;57.83;;
7181;SDS011;3632;42.724;23.298;2023-12-20T10:06:40;120.13;;;56.60;;
7181;SDS011;3632;42.724;23.298;2023-12-20T10:09:07;111.90;;;52.63;;
7181;SDS011;3632;42.724;23.298;2023-12-20T10:11:35;126.87;;;57.67;;
7181;SDS011;3632;42.724;23.298;2023-12-20T10:14:03;124.63;;;60.97;;
7181;SDS011;3632;42.724;23.298;2023-12-20T10:16:31;130.20;;;62.77;;
7181;SDS011;3632;42.724;23.298;2023-12-20T10:18:58;130.33;;;62.73;;
7181;SDS011;3632;42.724;23.298;2023-12-20T10:21:26;121.20;;;60.87;;
7181;SDS011;3632;42.724;23.298;2023-12-20T10:23:54;113.43;;;56.20;;
7181;SDS011;3632;42.724;23.298;2023-12-20T10:26:22;118.17;;;56.50;;
7181;SDS011;3632;42.724;23.298;2023-12-20T10:28:51;119.63;;;59.87;;
7181;SDS011;3632;42.724;23.298;2023-12-20T10:31:26;118.70;;;60.70;;
7181;SDS011;3632;42.724;23.298;2023-12-20T10:33:55;111.73;;;59.00;;
7181;SDS011;3632;42.724;23.298;2023-12-20T10:36:23;106.80;;;57.43;;
7181;SDS011;3632;42.724;23.298;2023-12-20T10:38:52;104.47;;;56.43;;
7181;SDS011;3632;42.724;23.298;2023-12-20T10:41:23;105.87;;;57.27;;
7181;SDS011;3632;42.724;23.298;2023-12-20T10:43:53;102.37;;;57.10;;
7181;SDS011;3632;42.724;23.298;2023-12-20T10:46:22;116.20;;;59.93;;
7181;SDS011;3632;42.724;23.298;2023-12-20T10:48:51;108.63;;;59.77;;
7181;SDS011;3632;42.724;23.298;2023-12-20T10:51:20;108.33;;;58.60;;
7181;SDS011;3632;42.724;23.298;2023-12-20T10:53:48;101.97;;;57.13;;
7181;SDS011;3632;42.724;23.298;2023-12-20T10:56:15;97.80;;;56.43;;
7181;SDS011;3632;42.724;23.298;2023-12-20T10:58:46;106.47;;;62.27;;
7181;SDS011;3632;42.724;23.298;2023-12-20T11:01:16;100.10;;;56.83;;
7181;SDS011;3632;42.724;23.298;2023-12-20T11:03:46;117.63;;;67.00;;
7181;SDS011;3632;42.724;23.298;2023-12-20T11:06:19;118.80;;;72.97;;
7181;SDS011;3632;42.724;23.298;2023-12-20T11:09:04;121.77;;;73.77;;
7181;SDS011;3632;42.724;23.298;2023-12-20T11:11:40;124.33;;;74.07;;
7181;SDS011;3632;42.724;23.298;2023-12-20T11:14:20;126.50;;;78.97;;
7181;SDS011;3632;42.724;23.298;2023-12-20T11:16:50;117.63;;;74.53;;
7181;SDS011;3632;42.724;23.298;2023-12-20T11:19:17;106.70;;;64.17;;
7181;SDS011;3632;42.724;23.298;2023-12-20T11:21:44;110.27;;;68.63;;
7181;SDS011;3632;42.724;23.298;2023-12-20T11:24:12;112.70;;;73.77;;
7181;SDS011;3632;42.724;23.298;2023-12-20T11:26:39;121.87;;;77.17;;
7181;SDS011;3632;42.724;23.298;2023-12-20T11:29:33;136.33;;;82.60;;
7181;SDS011;3632;42.724;23.298;2023-12-20T11:32:01;152.37;;;91.23;;
7181;SDS011;3632;42.724;23.298;2023-12-20T11:34:31;164.13;;;98.73;;
7181;SDS011;3632;42.724;23.298;2023-12-20T11:36:59;176.10;;;101.20;;
7181;SDS011;3632;42.724;23.298;2023-12-20T11:39:27;182.47;;;102.83;;
7181;SDS011;3632;42.724;23.298;2023-12-20T11:41:55;178.70;;;100.70;;
7181;SDS011;3632;42.724;23.298;2023-12-20T11:44:24;167.70;;;98.60;;
7181;SDS011;3632;42.724;23.298;2023-12-20T11:46:53;179.27;;;98.93;;
7181;SDS011;3632;42.724;23.298;2023-12-20T11:49:24;172.63;;;96.47;;
7181;SDS011;3632;42.724;23.298;2023-12-20T11:51:54;169.73;;;94.07;;
7181;SDS011;3632;42.724;23.298;2023-12-20T11:54:21;163.27;;;90.37;;
7181;SDS011;3632;42.724;23.298;2023-12-20T11:56:49;164.87;;;92.50;;
7181;SDS011;3632;42.724;23.298;2023-12-20T11:59:16;160.20;;;90.03;;
7181;SDS011;3632;42.724;23.298;2023-12-20T12:01:47;158.40;;;86.60;;
7181;SDS011;3632;42.724;23.298;2023-12-20T12:04:16;145.43;;;82.53;;
7181;SDS011;3632;42.724;23.298;2023-12-20T12:06:44;151.30;;;81.93;;
7181;SDS011;3632;42.724;23.298;2023-12-20T12:09:11;141.00;;;80.30;;
7181;SDS011;3632;42.724;23.298;2023-12-20T12:11:38;149.13;;;82.73;;
7181;SDS011;3632;42.724;23.298;2023-12-20T12:14:06;144.43;;;80.53;;
7181;SDS011;3632;42.724;23.298;2023-12-20T12:16:34;134.53;;;79.77;;
7181;SDS011;3632;42.724;23.298;2023-12-20T12:19:01;141.53;;;80.00;;
7181;SDS011;3632;42.724;23.298;2023-12-20T12:21:30;127.53;;;75.60;;
7181;SDS011;3632;42.724;23.298;2023-12-20T12:24:05;126.63;;;75.70;;
7181;SDS011;3632;42.724;23.298;2023-12-20T12:26:35;122.50;;;71.57;;
7181;SDS011;3632;42.724;23.298;2023-12-20T12:29:03;113.87;;;67.77;;
7181;SDS011;3632;42.724;23.298;2023-12-20T12:31:29;113.40;;;66.87;;
7181;SDS011;3632;42.724;23.298;2023-12-20T12:33:56;117.63;;;64.23;;
7181;SDS011;3632;42.724;23.298;2023-12-20T12:36:23;114.30;;;64.83;;
7181;SDS011;3632;42.724;23.298;2023-12-20T12:38:51;106.93;;;61.93;;
7181;SDS011;3632;42.724;23.298;2023-12-20T12:41:18;108.87;;;67.40;;
7181;SDS011;3632;42.724;23.298;2023-12-20T12:43:46;112.33;;;63.93;;
7181;SDS011;3632;42.724;23.298;2023-12-20T12:46:12;113.10;;;62.83;;
7181;SDS011;3632;42.724;23.298;2023-12-20T12:48:39;109.80;;;62.67;;
7181;SDS011;3632;42.724;23.298;2023-12-20T12:51:06;107.77;;;61.23;;
7181;SDS011;3632;42.724;23.298;2023-12-20T12:53:37;108.30;;;59.37;;
7181;SDS011;3632;42.724;23.298;2023-12-20T12:56:05;107.30;;;60.60;;
7181;SDS011;3632;42.724;23.298;2023-12-20T12:58:33;110.53;;;60.87;;
7181;SDS011;3632;42.724;23.298;2023-12-20T13:00:59;110.43;;;59.60;;
7181;SDS011;3632;42.724;23.298;2023-12-20T13:03:27;110.27;;;59.80;;
7181;SDS011;3632;42.724;23.298;2023-12-20T13:05:54;110.13;;;59.60;;
7181;SDS011;3632;42.724;23.298;2023-12-20T13:08:21;108.53;;;59.37;;
7181;SDS011;3632;42.724;23.298;2023-12-20T13:10:48;116.43;;;60.87;;
7181;SDS011;3632;42.724;23.298;2023-12-20T13:13:17;119.33;;;59.97;;
7181;SDS011;3632;42.724;23.298;2023-12-20T13:15:44;128.23;;;64.27;;
7181;SDS011;3632;42.724;23.298;2023-12-20T13:18:16;123.77;;;63.27;;
7181;SDS011;3632;42.724;23.298;2023-12-20T13:20:43;123.90;;;62.70;;
7181;SDS011;3632;42.724;23.298;2023-12-20T13:23:11;119.43;;;60.93;;
7181;SDS011;3632;42.724;23.298;2023-12-20T13:25:37;120.57;;;61.13;;
7181;SDS011;3632;42.724;23.298;2023-12-20T13:28:04;115.90;;;59.77;;
7181;SDS011;3632;42.724;23.298;2023-12-20T13:30:33;119.37;;;60.10;;
7181;SDS011;3632;42.724;23.298;2023-12-20T13:32:59;122.13;;;60.13;;
7181;SDS011;3632;42.724;23.298;2023-12-20T13:35:26;121.87;;;60.67;;
7181;SDS011;3632;42.724;23.298;2023-12-20T13:37:53;109.57;;;59.20;;
7181;SDS011;3632;42.724;23.298;2023-12-20T13:40:21;125.57;;;62.07;;
7181;SDS011;3632;42.724;23.298;2023-12-20T13:42:48;121.60;;;59.73;;
7181;SDS011;3632;42.724;23.298;2023-12-20T13:45:15;120.03;;;58.27;;
7181;SDS011;3632;42.724;23.298;2023-12-20T13:47:43;126.37;;;62.77;;
7181;SDS011;3632;42.724;23.298;2023-12-20T13:50:10;125.73;;;61.90;;
7181;SDS011;3632;42.724;23.298;2023-12-20T13:52:37;124.03;;;60.20;;
7181;SDS011;3632;42.724;23.298;2023-12-20T13:55:05;118.30;;;57.17;;
7181;SDS011;3632;42.724;23.298;2023-12-20T13:57:33;133.93;;;61.17;;
7181;SDS011;3632;42.724;23.298;2023-12-20T14:00:07;132.03;;;66.30;;
7181;SDS011;3632;42.724;23.298;2023-12-20T14:02:39;144.93;;;60.13;;
7181;SDS011;3632;42.724;23.298;2023-12-20T14:05:08;118.30;;;57.77;;
7181;SDS011;3632;42.724;23.298;2023-12-20T14:07:35;120.53;;;59.30;;
7181;SDS011;3632;42.724;23.298;2023-12-20T14:10:02;118.33;;;57.20;;
7181;SDS011;3632;42.724;23.298;2023-12-20T14:12:30;133.17;;;59.07;;
7181;SDS011;3632;42.724;23.298;2023-12-20T14:15:01;140.77;;;60.63;;
7181;SDS011;3632;42.724;23.298;2023-12-20T14:17:28;131.23;;;59.13;;
7181;SDS011;3632;42.724;23.298;2023-12-20T14:19:57;122.53;;;60.13;;
7181;SDS011;3632;42.724;23.298;2023-12-20T14:22:30;126.33;;;59.50;;
7181;SDS011;3632;42.724;23.298;2023-12-20T14:24:57;124.80;;;61.20;;